| time (UTC) | temp C | wind direction | speed KPH | gust KPH | rain 1hr cm | rain 24hr cm | rain mn cm | humidity % | barometer mb |
| 20260510204520 | 21 | 189 | 1.6 | 4.8 | 0.00 | 0.51 | 0.00 | 52 | 1012.2 |
| 20260510204009 | 21 | 186 | 1.6 | 8.0 | 0.00 | 0.53 | 0.00 | 53 | 1012.1 |
| 20260510203506 | 21 | 180 | 1.6 | 8.0 | 0.00 | 0.56 | 0.00 | 52 | 1012.1 |
| 20260510203032 | 21 | 296 | 1.6 | 9.7 | 0.00 | 0.58 | 0.00 | 51 | 1012.0 |
| 20260510202507 | 21 | 184 | 1.6 | 17.7 | 0.00 | 0.58 | 0.00 | 51 | 1012.0 |
| 20260510202005 | 21 | 236 | 3.2 | 17.7 | 0.00 | 0.61 | 0.00 | 51 | 1012.0 |
| 20260510201509 | 21 | 325 | 4.8 | 17.7 | 0.00 | 0.61 | 0.00 | 50 | 1012.0 |
| 20260510201004 | 21 | 267 | 6.4 | 16.1 | 0.00 | 0.64 | 0.00 | 50 | 1012.0 |
| 20260510200505 | 21 | 204 | 4.8 | 16.1 | 0.00 | 0.64 | 0.00 | 49 | 1012.0 |
| 20260510200016 | 21 | 286 | 3.2 | 11.3 | 0.00 | 0.64 | 0.00 | 51 | 1012.0 |
| 20260510195510 | 21 | 213 | 1.6 | 11.3 | 0.00 | 0.64 | 0.00 | 50 | 1012.0 |
| 20260510195007 | 21 | 219 | 4.8 | 14.5 | 0.00 | 0.64 | 0.00 | 49 | 1012.0 |
| 20260510194518 | 21 | 213 | 6.4 | 16.1 | 0.00 | 0.64 | 0.00 | 49 | 1012.0 |
| 20260510194008 | 21 | 338 | 3.2 | 16.1 | 0.00 | 0.64 | 0.00 | 51 | 1012.0 |
| 20260510193509 | 21 | 178 | 1.6 | 12.9 | 0.00 | 0.64 | 0.00 | 51 | 1011.9 |
| 20260510193021 | 21 | 270 | 3.2 | 16.1 | 0.00 | 0.64 | 0.00 | 52 | 1011.9 |
| 20260510192511 | 21 | 232 | 6.4 | 16.1 | 0.00 | 0.64 | 0.00 | 53 | 1012.0 |
| 20260510192008 | 20 | 343 | 1.6 | 8.0 | 0.00 | 0.66 | 0.00 | 65 | 1012.0 |
| 20260510191528 | 20 | 300 | 1.6 | 3.2 | 0.00 | 0.66 | 0.00 | 67 | 1012.1 |
| 20260510191004 | 20 | 158 | 1.6 | 3.2 | 0.00 | 0.66 | 0.00 | 67 | 1012.1 |
| 20260510190505 | 20 | 216 | 0.0 | 3.2 | 0.00 | 0.66 | 0.00 | 68 | 1012.1 |
| 20260510190013 | 20 | 143 | 1.6 | 3.2 | 0.00 | 0.66 | 0.00 | 68 | 1012.1 |
| 20260510185505 | 20 | 207 | 0.0 | 3.2 | 0.00 | 0.69 | 0.00 | 68 | 1012.3 |
| 20260510185006 | 20 | 159 | 0.0 | 3.2 | 0.00 | 0.69 | 0.00 | 71 | 1012.2 |
| 20260510184518 | 20 | 152 | 0.0 | 4.8 | 0.00 | 0.71 | 0.00 | 71 | 1012.3 |
| 20260510184008 | 20 | 186 | 0.0 | 4.8 | 0.00 | 0.71 | 0.00 | 72 | 1012.2 |
| 20260510183511 | 20 | 167 | 1.6 | 4.8 | 0.00 | 0.71 | 0.00 | 70 | 1012.3 |
| 20260510183033 | 20 | 97 | 1.6 | 3.2 | 0.00 | 0.79 | 0.00 | 71 | 1012.3 |
| 20260510182504 | 20 | 82 | 1.6 | 4.8 | 0.00 | 0.84 | 0.00 | 71 | 1012.3 |
| 20260510182004 | 20 | 169 | 1.6 | 4.8 | 0.00 | 0.91 | 0.00 | 69 | 1012.4 |
| 20260510181507 | 20 | 140 | 1.6 | 4.8 | 0.00 | 0.94 | 0.00 | 70 | 1012.3 |
| 20260510181005 | 20 | 109 | 1.6 | 4.8 | 0.00 | 0.97 | 0.00 | 70 | 1012.3 |
| 20260510180508 | 19 | 136 | 1.6 | 4.8 | 0.00 | 0.97 | 0.00 | 73 | 1012.3 |
| 20260510180011 | 18 | 202 | 0.0 | 3.2 | 0.00 | 0.97 | 0.00 | 73 | 1012.3 |
| 20260510175504 | 18 | 180 | 1.6 | 3.2 | 0.00 | 0.97 | 0.00 | 73 | 1012.3 |
| 20260510175005 | 18 | 192 | 0.0 | 6.4 | 0.00 | 0.97 | 0.00 | 74 | 1012.3 |
| 20260510174515 | 18 | 212 | 3.2 | 6.4 | 0.00 | 0.97 | 0.00 | 72 | 1012.3 |
| 20260510174007 | 19 | 203 | 1.6 | 4.8 | 0.00 | 0.97 | 0.00 | 71 | 1012.4 |
| 20260510173508 | 19 | 131 | 0.0 | 6.4 | 0.00 | 0.97 | 0.00 | 71 | 1012.4 |
| 20260510173018 | 19 | 111 | 1.6 | 6.4 | 0.00 | 0.97 | 0.00 | 70 | 1012.4 |
| 20260510172509 | 19 | 203 | 1.6 | 6.4 | 0.00 | 0.97 | 0.00 | 71 | 1012.4 |
| 20260510172011 | 18 | 185 | 1.6 | 4.8 | 0.00 | 0.97 | 0.00 | 72 | 1012.5 |
| 20260510171503 | 18 | 130 | 1.6 | 6.4 | 0.00 | 0.97 | 0.00 | 73 | 1012.6 |
| 20260510171007 | 18 | 145 | 1.6 | 6.4 | 0.00 | 0.97 | 0.00 | 74 | 1012.5 |
| 20260510170506 | 18 | 136 | 1.6 | 4.8 | 0.00 | 0.97 | 0.00 | 75 | 1012.7 |
| 20260510170010 | 18 | 146 | 1.6 | 4.8 | 0.00 | 0.97 | 0.00 | 75 | 1012.7 |
| 20260510165505 | 17 | 128 | 1.6 | 6.4 | 0.00 | 0.97 | 0.00 | 76 | 1012.8 |
| 20260510165005 | 17 | 118 | 1.6 | 6.4 | 0.00 | 0.97 | 0.00 | 76 | 1012.9 |
| 20260510164526 | 17 | 166 | 1.6 | 4.8 | 0.00 | 0.97 | 0.00 | 77 | 1013.0 |
| 20260510164009 | 17 | 132 | 1.6 | 4.8 | 0.00 | 0.97 | 0.00 | 77 | 1013.0 |
| 20260510163506 | 17 | 194 | 0.0 | 4.8 | 0.00 | 0.97 | 0.00 | 79 | 1013.0 |
| 20260510163020 | 16 | 149 | 3.2 | 6.4 | 0.00 | 0.97 | 0.00 | 77 | 1013.1 |
| 20260510162509 | 16 | 121 | 1.6 | 6.4 | 0.00 | 0.97 | 0.00 | 78 | 1013.0 |
| 20260510162010 | 16 | 180 | 1.6 | 6.4 | 0.00 | 0.97 | 0.00 | 78 | 1013.1 |
| 20260510161522 | 16 | 136 | 3.2 | 4.8 | 0.00 | 0.97 | 0.00 | 78 | 1013.2 |
| 20260510161012 | 16 | 151 | 0.0 | 8.0 | 0.00 | 0.97 | 0.00 | 81 | 1013.1 |
| 20260510160504 | 16 | 142 | 1.6 | 8.0 | 0.00 | 0.97 | 0.00 | 80 | 1012.9 |
| 20260510160006 | 16 | 182 | 3.2 | 6.4 | 0.00 | 0.97 | 0.00 | 81 | 1013.0 |
| 20260510155508 | 16 | 175 | 3.2 | 8.0 | 0.00 | 0.97 | 0.00 | 80 | 1013.4 |
| 20260510155004 | 16 | 200 | 3.2 | 8.0 | 0.00 | 0.97 | 0.00 | 80 | 1013.4 |
| 20260510154510 | 16 | 122 | 1.6 | 4.8 | 0.00 | 0.97 | 0.00 | 81 | 1013.3 |
| 20260510154006 | 16 | 123 | 3.2 | 6.4 | 0.00 | 0.97 | 0.00 | 82 | 1013.4 |
| 20260510153504 | 15 | 157 | 1.6 | 6.4 | 0.00 | 0.97 | 0.00 | 82 | 1013.2 |
| 20260510153022 | 15 | 129 | 1.6 | 9.7 | 0.00 | 0.97 | 0.00 | 84 | 1013.2 |
| 20260510152513 | 15 | 130 | 1.6 | 9.7 | 0.00 | 0.97 | 0.00 | 85 | 1013.2 |
| 20260510152010 | 14 | 123 | 1.6 | 9.7 | 0.00 | 0.97 | 0.00 | 84 | 1013.2 |
| 20260510151520 | 15 | 126 | 3.2 | 9.7 | 0.00 | 0.97 | 0.00 | 84 | 1013.3 |
| 20260510151007 | 14 | 120 | 1.6 | 9.7 | 0.00 | 0.97 | 0.00 | 86 | 1013.3 |
| 20260510150512 | 14 | 188 | 3.2 | 9.7 | 0.00 | 0.97 | 0.00 | 86 | 1013.3 |
| 20260510150023 | 13 | 130 | 0.0 | 6.4 | 0.00 | 0.97 | 0.00 | 88 | 1013.4 |
| 20260510145514 | 13 | 131 | 1.6 | 6.4 | 0.00 | 0.97 | 0.00 | 88 | 1013.3 |
| 20260510145005 | 13 | 132 | 0.0 | 4.8 | 0.00 | 0.97 | 0.00 | 89 | 1013.3 |
| 20260510144508 | 13 | 141 | 0.0 | 4.8 | 0.00 | 0.97 | 0.00 | 89 | 1013.4 |
| 20260510144007 | 13 | 135 | 0.0 | 4.8 | 0.00 | 0.97 | 0.00 | 88 | 1013.3 |
| 20260510143507 | 13 | 131 | 1.6 | 4.8 | 0.00 | 0.97 | 0.00 | 88 | 1013.5 |
| 20260510143013 | 13 | 134 | 1.6 | 3.2 | 0.00 | 0.97 | 0.00 | 89 | 1013.4 |
| 20260510142505 | 13 | 144 | 1.6 | 6.4 | 0.00 | 0.97 | 0.00 | 89 | 1013.3 |
| 20260510142008 | 13 | 150 | 0.0 | 6.4 | 0.00 | 0.97 | 0.00 | 89 | 1013.3 |
| 20260510141519 | 13 | 180 | 0.0 | 4.8 | 0.00 | 0.97 | 0.00 | 89 | 1013.1 |
| 20260510141008 | 13 | 100 | 1.6 | 4.8 | 0.00 | 0.97 | 0.00 | 89 | 1013.1 |
| 20260510140512 | 13 | 106 | 0.0 | 4.8 | 0.00 | 0.97 | 0.00 | 90 | 1013.1 |
| 20260510140023 | 12 | 84 | 1.6 | 4.8 | 0.00 | 0.97 | 0.00 | 90 | 1013.1 |
| 20260510135508 | 12 | 193 | 0.0 | 4.8 | 0.00 | 0.97 | 0.00 | 90 | 1013.1 |
| 20260510135007 | 12 | 209 | 1.6 | 4.8 | 0.00 | 0.97 | 0.00 | 90 | 1013.1 |
| 20260510134526 | 12 | 132 | 1.6 | 4.8 | 0.00 | 0.97 | 0.00 | 90 | 1013.0 |
| 20260510134005 | 12 | 176 | 1.6 | 3.2 | 0.00 | 0.97 | 0.00 | 91 | 1013.1 |
| 20260510133507 | 12 | 133 | 0.0 | 3.2 | 0.00 | 0.97 | 0.00 | 91 | 1013.0 |
| 20260510133012 | 12 | 202 | 0.0 | 4.8 | 0.00 | 0.97 | 0.00 | 92 | 1013.0 |
| 20260510132511 | 12 | 165 | 0.0 | 4.8 | 0.00 | 0.97 | 0.00 | 92 | 1013.1 |
| 20260510132007 | 12 | 196 | 1.6 | 4.8 | 0.00 | 0.97 | 0.00 | 93 | 1012.9 |
| 20260510131517 | 12 | 191 | 0.0 | 3.2 | 0.00 | 0.97 | 0.00 | 93 | 1012.9 |
| 20260510131009 | 12 | 198 | 0.0 | 3.2 | 0.00 | 0.97 | 0.00 | 94 | 1012.8 |
| 20260510130509 | 12 | 135 | 0.0 | 3.2 | 0.00 | 0.97 | 0.00 | 93 | 1012.9 |
| 20260510130028 | 11 | 135 | 0.0 | 3.2 | 0.00 | 0.97 | 0.00 | 93 | 1012.6 |
| 20260510125509 | 12 | 136 | 0.0 | 3.2 | 0.00 | 0.97 | 0.00 | 94 | 1012.6 |
| 20260510125012 | 11 | 136 | 0.0 | 0.0 | 0.00 | 0.97 | 0.00 | 94 | 1012.8 |
| 20260510124533 | 11 | 136 | 0.0 | 3.2 | 0.00 | 0.97 | 0.00 | 94 | 1012.8 |
| 20260510124011 | 11 | 136 | 0.0 | 3.2 | 0.00 | 0.99 | 0.00 | 94 | 1012.7 |
| 20260510123513 | 11 | 136 | 0.0 | 3.2 | 0.00 | 0.99 | 0.00 | 94 | 1012.5 |
| 20260510123026 | 11 | 186 | 0.0 | 3.2 | 0.00 | 0.99 | 0.00 | 94 | 1012.4 |
| 20260510122504 | 11 | 186 | 0.0 | 3.2 | 0.00 | 0.99 | 0.00 | 94 | 1012.5 |
| 20260510122007 | 11 | 187 | 0.0 | 3.2 | 0.00 | 0.99 | 0.00 | 94 | 1012.4 |
| 20260510121513 | 11 | 149 | 0.0 | 3.2 | 0.00 | 0.99 | 0.00 | 95 | 1012.3 |
| 20260510121008 | 11 | 149 | 0.0 | 3.2 | 0.00 | 0.99 | 0.00 | 95 | 1012.2 |
| 20260510120508 | 11 | 205 | 0.0 | 3.2 | 0.00 | 0.99 | 0.00 | 95 | 1012.2 |
| 20260510120020 | 11 | 204 | 0.0 | 3.2 | 0.00 | 0.99 | 0.00 | 94 | 1012.2 |
| 20260510115507 | 11 | 136 | 1.6 | 3.2 | 0.00 | 0.99 | 0.00 | 95 | 1012.3 |
| 20260510115006 | 11 | 141 | 0.0 | 3.2 | 0.00 | 0.99 | 0.00 | 95 | 1012.3 |
| 20260510114522 | 11 | 190 | 0.0 | 4.8 | 0.00 | 0.99 | 0.00 | 95 | 1012.4 |
| 20260510114010 | 11 | 205 | 1.6 | 4.8 | 0.00 | 0.99 | 0.00 | 94 | 1012.4 |
| 20260510113507 | 11 | 196 | 1.6 | 4.8 | 0.00 | 0.99 | 0.00 | 95 | 1012.2 |
| 20260510113030 | 11 | 200 | 0.0 | 3.2 | 0.00 | 0.99 | 0.00 | 95 | 1012.2 |
| 20260510112512 | 11 | 206 | 0.0 | 4.8 | 0.00 | 0.99 | 0.00 | 95 | 1011.9 |
| 20260510112011 | 11 | 206 | 0.0 | 4.8 | 0.00 | 0.99 | 0.00 | 95 | 1011.9 |
| 20260510111512 | 11 | 199 | 0.0 | 6.4 | 0.00 | 0.99 | 0.00 | 95 | 1011.7 |
| 20260510111005 | 11 | 200 | 0.0 | 6.4 | 0.00 | 0.99 | 0.00 | 95 | 1011.7 |
| 20260510110512 | 11 | 205 | 1.6 | 4.8 | 0.00 | 0.99 | 0.00 | 95 | 1011.6 |
| 20260510110017 | 11 | 159 | 0.0 | 4.8 | 0.00 | 0.99 | 0.00 | 95 | 1011.6 |
| 20260510105507 | 11 | 211 | 1.6 | 4.8 | 0.00 | 0.99 | 0.00 | 95 | 1011.6 |
| 20260510105012 | 11 | 150 | 0.0 | 3.2 | 0.00 | 0.99 | 0.00 | 95 | 1011.6 |
| 20260510104524 | 11 | 174 | 0.0 | 6.4 | 0.00 | 0.99 | 0.00 | 95 | 1011.6 |
| 20260510104007 | 11 | 209 | 1.6 | 6.4 | 0.00 | 0.99 | 0.00 | 95 | 1011.5 |
| 20260510103508 | 11 | 197 | 1.6 | 4.8 | 0.00 | 0.99 | 0.00 | 95 | 1011.6 |
| 20260510103033 | 11 | 194 | 0.0 | 4.8 | 0.00 | 0.99 | 0.00 | 95 | 1011.6 |
| 20260510102508 | 11 | 204 | 0.0 | 6.4 | 0.00 | 0.99 | 0.00 | 95 | 1011.6 |
| 20260510102010 | 11 | 196 | 1.6 | 8.0 | 0.00 | 0.99 | 0.00 | 95 | 1011.6 |
| 20260510101527 | 11 | 181 | 1.6 | 8.0 | 0.00 | 0.99 | 0.00 | 95 | 1011.7 |
| 20260510101013 | 11 | 218 | 1.6 | 8.0 | 0.00 | 0.99 | 0.00 | 95 | 1011.6 |
| 20260510100516 | 11 | 213 | 1.6 | 4.8 | 0.00 | 0.99 | 0.00 | 95 | 1011.6 |
| 20260510100015 | 11 | 212 | 0.0 | 3.2 | 0.00 | 0.99 | 0.00 | 95 | 1011.6 |
| 20260510095508 | 11 | 213 | 0.0 | 3.2 | 0.00 | 0.99 | 0.00 | 95 | 1011.5 |
| 20260510095006 | 11 | 168 | 0.0 | 4.8 | 0.00 | 0.99 | 0.00 | 95 | 1011.6 |
| 20260510094518 | 11 | 196 | 1.6 | 6.4 | 0.00 | 0.99 | 0.00 | 95 | 1011.6 |
| 20260510094008 | 11 | 229 | 1.6 | 6.4 | 0.00 | 0.99 | 0.00 | 95 | 1011.5 |
| 20260510093510 | 11 | 205 | 1.6 | 4.8 | 0.00 | 0.99 | 0.00 | 95 | 1011.7 |
| 20260510093023 | 11 | 184 | 1.6 | 4.8 | 0.00 | 0.99 | 0.00 | 95 | 1011.8 |
| 20260510092512 | 11 | 198 | 0.0 | 3.2 | 0.00 | 0.99 | 0.00 | 95 | 1011.8 |
| 20260510092016 | 11 | 182 | 0.0 | 3.2 | 0.00 | 0.99 | 0.00 | 95 | 1011.8 |
| 20260510091546 | 11 | 198 | 0.0 | 3.2 | 0.00 | 0.99 | 0.00 | 95 | 1011.8 |
| 20260510091009 | 11 | 210 | 0.0 | 3.2 | 0.00 | 0.99 | 0.00 | 95 | 1011.8 |
| 20260510090509 | 11 | 313 | 0.0 | 0.0 | 0.00 | 0.99 | 0.00 | 95 | 1011.9 |
| 20260510090026 | 11 | 313 | 0.0 | 3.2 | 0.00 | 0.99 | 0.00 | 95 | 1012.0 |
| 20260510085512 | 11 | 313 | 0.0 | 3.2 | 0.00 | 0.99 | 0.00 | 95 | 1012.0 |
| 20260510085005 | 11 | 313 | 0.0 | 3.2 | 0.00 | 0.99 | 0.00 | 95 | 1012.0 |
| 20260510084516 | 11 | 313 | 0.0 | 3.2 | 0.00 | 0.99 | 0.00 | 95 | 1011.9 |
| 20260510084009 | 11 | 313 | 0.0 | 3.2 | 0.00 | 0.99 | 0.00 | 95 | 1012.0 |
| 20260510083514 | 11 | 313 | 0.0 | 1.6 | 0.00 | 0.99 | 0.00 | 95 | 1012.0 |
| 20260510083021 | 11 | 335 | 0.0 | 0.0 | 0.00 | 0.99 | 0.00 | 95 | 1012.1 |
| 20260510082508 | 11 | 335 | 0.0 | 0.0 | 0.00 | 0.99 | 0.00 | 95 | 1011.9 |
| 20260510082008 | 11 | 335 | 0.0 | 0.0 | 0.00 | 0.99 | 0.00 | 95 | 1012.0 |
| 20260510081535 | 11 | 335 | 0.0 | 3.2 | 0.00 | 0.99 | 0.00 | 95 | 1012.0 |
| 20260510081009 | 11 | 335 | 0.0 | 3.2 | 0.00 | 0.99 | 0.00 | 95 | 1012.0 |
| 20260510080510 | 11 | 335 | 0.0 | 3.2 | 0.00 | 0.99 | 0.00 | 95 | 1011.6 |
| 20260510080025 | 11 | 327 | 1.6 | 8.0 | 0.00 | 0.99 | 0.00 | 95 | 1012.0 |
| 20260510075514 | 11 | 13 | 1.6 | 8.0 | 0.00 | 0.99 | 0.00 | 95 | 1011.8 |
| 20260510075012 | 11 | 313 | 3.2 | 4.8 | 0.00 | 0.99 | 0.00 | 95 | 1011.6 |
| 20260510074530 | 11 | 62 | 0.0 | 3.2 | 0.00 | 0.99 | 0.00 | 95 | 1011.0 |
| 20260510074019 | 11 | 144 | 0.0 | 3.2 | 0.00 | 0.99 | 0.00 | 95 | 1010.8 |
| 20260510073513 | 11 | 144 | 0.0 | 3.2 | 0.00 | 0.99 | 0.00 | 95 | 1011.0 |
| 20260510073027 | 11 | 144 | 0.0 | 1.6 | 0.00 | 0.99 | 0.00 | 95 | 1011.0 |
| 20260510072507 | 11 | 144 | 0.0 | 3.2 | 0.00 | 0.99 | 0.00 | 95 | 1011.0 |
| 20260510072009 | 11 | 144 | 0.0 | 1.6 | 0.00 | 0.99 | 0.00 | 95 | 1011.0 |
| 20260510071536 | 11 | 144 | 0.0 | 3.2 | 0.00 | 0.99 | 0.00 | 95 | 1011.2 |
| 20260510071009 | 11 | 144 | 0.0 | 3.2 | 0.00 | 0.99 | 0.00 | 94 | 1011.1 |
| 20260510070510 | 11 | 144 | 0.0 | 3.2 | 0.00 | 0.99 | 0.00 | 95 | 1011.2 |
| 20260510070027 | 11 | 192 | 0.0 | 3.2 | 0.00 | 0.99 | 0.00 | 95 | 1011.3 |
| 20260510065510 | 11 | 192 | 0.0 | 3.2 | 0.00 | 0.99 | 0.00 | 95 | 1011.2 |
| 20260510065011 | 11 | 192 | 0.0 | 1.6 | 0.00 | 0.99 | 0.00 | 95 | 1011.2 |
| 20260510064549 | 11 | 192 | 0.0 | 3.2 | 0.00 | 0.99 | 0.00 | 95 | 1011.2 |
| 20260510064009 | 11 | 192 | 0.0 | 3.2 | 0.00 | 0.99 | 0.00 | 94 | 1011.3 |
| 20260510063510 | 11 | 192 | 0.0 | 3.2 | 0.00 | 0.99 | 0.00 | 94 | 1011.4 |
| 20260510063038 | 11 | 192 | 0.0 | 1.6 | 0.00 | 0.99 | 0.00 | 94 | 1011.4 |
| 20260510062508 | 11 | 192 | 0.0 | 1.6 | 0.00 | 0.99 | 0.00 | 94 | 1011.3 |
| 20260510062007 | 11 | 192 | 0.0 | 1.6 | 0.00 | 0.99 | 0.00 | 94 | 1011.3 |
| 20260510061533 | 11 | 192 | 0.0 | 1.6 | 0.00 | 0.99 | 0.00 | 94 | 1011.3 |
| 20260510061010 | 11 | 192 | 0.0 | 1.6 | 0.00 | 0.99 | 0.00 | 94 | 1011.3 |
| 20260510060509 | 11 | 192 | 0.0 | 3.2 | 0.00 | 0.99 | 0.00 | 94 | 1011.0 |
| 20260510060032 | 11 | 192 | 0.0 | 3.2 | 0.00 | 0.99 | 0.00 | 94 | 1011.0 |
| 20260510055510 | 11 | 212 | 0.0 | 3.2 | 0.00 | 0.99 | 0.00 | 94 | 1010.9 |
| 20260510055009 | 11 | 214 | 0.0 | 3.2 | 0.00 | 0.99 | 0.00 | 94 | 1010.9 |
| 20260510054528 | 11 | 224 | 1.6 | 3.2 | 0.00 | 0.99 | 0.00 | 94 | 1010.9 |
| 20260510054010 | 11 | 225 | 0.0 | 3.2 | 0.00 | 1.02 | 0.00 | 94 | 1010.9 |
| 20260510053513 | 11 | 5 | 0.0 | 3.2 | 0.00 | 1.02 | 0.00 | 95 | 1010.9 |
| 20260510053025 | 11 | 5 | 0.0 | 3.2 | 0.00 | 1.02 | 0.00 | 95 | 1010.9 |
| 20260510052515 | 11 | 5 | 0.0 | 3.2 | 0.00 | 1.02 | 0.00 | 94 | 1011.0 |
| 20260510052012 | 11 | 5 | 0.0 | 3.2 | 0.00 | 1.02 | 0.00 | 94 | 1011.0 |
| 20260510051526 | 11 | 5 | 0.0 | 3.2 | 0.00 | 1.02 | 0.00 | 94 | 1011.0 |
| 20260510051009 | 11 | 5 | 0.0 | 3.2 | 0.00 | 1.02 | 0.00 | 94 | 1011.0 |
| 20260510050509 | 11 | 5 | 0.0 | 3.2 | 0.00 | 1.02 | 0.00 | 94 | 1011.0 |
| 20260510050026 | 11 | 5 | 0.0 | 0.0 | 0.00 | 1.02 | 0.00 | 94 | 1011.1 |
| 20260510045510 | 11 | 5 | 0.0 | 3.2 | 0.00 | 1.02 | 0.00 | 94 | 1011.1 |
| 20260510045017 | 11 | 5 | 0.0 | 3.2 | 0.00 | 1.02 | 0.00 | 94 | 1011.3 |
| 20260510044530 | 11 | 5 | 0.0 | 3.2 | 0.00 | 1.02 | 0.00 | 94 | 1011.2 |
| 20260510044012 | 11 | 5 | 0.0 | 3.2 | 0.00 | 1.02 | 0.00 | 94 | 1011.2 |
| 20260510043511 | 11 | 5 | 0.0 | 3.2 | 0.00 | 1.02 | 0.00 | 94 | 1011.2 |
| 20260510043026 | 11 | 5 | 0.0 | 3.2 | 0.00 | 1.02 | 0.00 | 94 | 1011.1 |
| 20260510042510 | 11 | 19 | 0.0 | 3.2 | 0.00 | 1.02 | 0.00 | 94 | 1011.1 |
| 20260510042010 | 11 | 43 | 0.0 | 3.2 | 0.00 | 1.02 | 0.00 | 94 | 1011.1 |
| 20260510041526 | 11 | 5 | 0.0 | 0.0 | 0.00 | 1.02 | 0.00 | 94 | 1011.1 |
| 20260510041011 | 11 | 15 | 0.0 | 0.0 | 0.00 | 1.02 | 0.00 | 94 | 1011.2 |
| 20260510040511 | 11 | 15 | 0.0 | 3.2 | 0.00 | 1.02 | 0.00 | 94 | 1011.2 |
| 20260510040022 | 11 | 15 | 0.0 | 3.2 | 0.00 | 1.02 | 0.00 | 94 | 1011.1 |
| 20260510035510 | 11 | 46 | 0.0 | 3.2 | 0.00 | 1.02 | 1.02 | 94 | 1011.0 |
| 20260510035010 | 11 | 69 | 0.0 | 3.2 | 0.00 | 1.02 | 1.02 | 94 | 1010.9 |
| 20260510034525 | 11 | 69 | 0.0 | 3.2 | 0.00 | 1.02 | 1.02 | 94 | 1010.9 |
| 20260510034014 | 11 | 69 | 0.0 | 3.2 | 0.00 | 1.02 | 1.02 | 94 | 1011.0 |
| 20260510033507 | 11 | 69 | 0.0 | 3.2 | 0.00 | 1.02 | 1.02 | 94 | 1010.8 |
| 20260510033028 | 11 | 69 | 0.0 | 3.2 | 0.00 | 1.02 | 1.02 | 94 | 1010.7 |
| 20260510032507 | 11 | 352 | 0.0 | 0.0 | 0.00 | 1.02 | 1.02 | 94 | 1010.6 |
| 20260510032011 | 11 | 352 | 0.0 | 3.2 | 0.00 | 1.02 | 1.02 | 94 | 1010.6 |
| 20260510031516 | 11 | 352 | 0.0 | 3.2 | 0.00 | 1.02 | 1.02 | 94 | 1010.7 |
| 20260510031008 | 11 | 352 | 1.6 | 3.2 | 0.00 | 1.02 | 1.02 | 94 | 1010.6 |
| 20260510030507 | 11 | 352 | 1.6 | 3.2 | 0.00 | 1.02 | 1.02 | 94 | 1010.7 |
| 20260510030019 | 11 | 211 | 0.0 | 3.2 | 0.00 | 1.02 | 1.02 | 94 | 1010.7 |
| 20260510025508 | 11 | 211 | 0.0 | 3.2 | 0.00 | 1.02 | 1.02 | 94 | 1010.8 |
| 20260510025011 | 11 | 211 | 0.0 | 1.6 | 0.00 | 1.02 | 1.02 | 94 | 1010.9 |
| 20260510024523 | 11 | 211 | 0.0 | 1.6 | 0.00 | 1.02 | 1.02 | 94 | 1011.0 |
| 20260510024010 | 11 | 211 | 0.0 | 3.2 | 0.00 | 1.02 | 1.02 | 94 | 1011.0 |
| 20260510023510 | 11 | 211 | 0.0 | 3.2 | 0.00 | 1.02 | 1.02 | 94 | 1011.0 |
| 20260510023026 | 11 | 225 | 0.0 | 3.2 | 0.00 | 1.02 | 1.02 | 94 | 1010.9 |
| 20260510022508 | 11 | 225 | 0.0 | 3.2 | 0.00 | 1.02 | 1.02 | 94 | 1010.9 |
| 20260510022011 | 11 | 225 | 0.0 | 0.0 | 0.00 | 1.02 | 1.02 | 94 | 1010.8 |
| 20260510021528 | 11 | 225 | 0.0 | 0.0 | 0.00 | 1.02 | 1.02 | 94 | 1010.8 |
| 20260510021008 | 11 | 225 | 0.0 | 0.0 | 0.00 | 1.02 | 1.02 | 94 | 1010.8 |
| 20260510020506 | 11 | 225 | 0.0 | 0.0 | 0.00 | 1.02 | 1.02 | 94 | 1010.9 |
| 20260510020016 | 11 | 225 | 0.0 | 0.0 | 0.00 | 1.02 | 1.02 | 94 | 1011.0 |
| 20260510015509 | 11 | 225 | 0.0 | 3.2 | 0.00 | 1.02 | 1.02 | 94 | 1010.9 |
| 20260510015007 | 11 | 225 | 0.0 | 3.2 | 0.00 | 1.02 | 1.02 | 94 | 1010.8 |
| 20260510014527 | 11 | 225 | 0.0 | 3.2 | 0.00 | 1.02 | 1.02 | 93 | 1010.9 |
| 20260510014006 | 12 | 225 | 0.0 | 3.2 | 0.00 | 1.02 | 1.02 | 93 | 1010.8 |
| 20260510013511 | 12 | 230 | 0.0 | 3.2 | 0.00 | 1.02 | 1.02 | 93 | 1010.7 |
| 20260510013024 | 12 | 230 | 0.0 | 1.6 | 0.00 | 1.02 | 1.02 | 94 | 1010.7 |
| 20260510012511 | 12 | 230 | 0.0 | 3.2 | 0.00 | 1.02 | 1.02 | 94 | 1010.7 |
| 20260510012009 | 12 | 230 | 0.0 | 3.2 | 0.00 | 1.02 | 1.02 | 94 | 1010.6 |
| 20260510011527 | 12 | 230 | 0.0 | 3.2 | 0.00 | 1.02 | 1.02 | 94 | 1010.3 |
| 20260510011008 | 12 | 230 | 0.0 | 3.2 | 0.00 | 1.02 | 1.02 | 94 | 1010.4 |
| 20260510010510 | 12 | 230 | 0.0 | 3.2 | 0.00 | 1.02 | 1.02 | 94 | 1010.4 |
| 20260510010027 | 12 | 170 | 0.0 | 3.2 | 0.00 | 1.02 | 1.02 | 94 | 1010.2 |
| 20260510005507 | 12 | 200 | 0.0 | 3.2 | 0.00 | 1.02 | 1.02 | 94 | 1010.1 |
| 20260510005008 | 12 | 220 | 0.0 | 3.2 | 0.00 | 1.02 | 1.02 | 94 | 1010.2 |
| 20260510004520 | 11 | 220 | 0.0 | 3.2 | 0.00 | 1.02 | 1.02 | 94 | 1010.2 |
| 20260510004013 | 11 | 257 | 0.0 | 0.0 | 0.00 | 1.02 | 1.02 | 93 | 1010.2 |
| 20260510003505 | 11 | 257 | 0.0 | 1.6 | 0.00 | 1.02 | 1.02 | 93 | 1010.2 |
| 20260510003006 | 11 | 257 | 0.0 | 3.2 | 0.00 | 1.02 | 1.02 | 93 | 1010.3 |
| 20260510002504 | 12 | 257 | 0.0 | 3.2 | 0.00 | 1.02 | 1.02 | 93 | 1010.3 |
| 20260510002003 | 12 | 257 | 0.0 | 3.2 | 0.00 | 1.02 | 1.02 | 92 | 1010.2 |
| 20260510001507 | 12 | 257 | 0.0 | 3.2 | 0.00 | 1.02 | 1.02 | 93 | 1010.2 |
| 20260510001004 | 12 | 257 | 0.0 | 3.2 | 0.00 | 1.02 | 1.02 | 92 | 1010.2 |
| 20260510000502 | 12 | 257 | 0.0 | 3.2 | 0.00 | 1.02 | 1.02 | 92 | 1010.1 |
| 20260510000007 | 12 | 257 | 0.0 | 1.6 | 0.00 | 1.02 | 1.02 | 92 | 1010.0 |
| 20260509235503 | 12 | 257 | 0.0 | 1.6 | 0.00 | 1.02 | 1.02 | 92 | 1010.0 |
| 20260509235004 | 12 | 257 | 0.0 | 1.6 | 0.00 | 1.02 | 1.02 | 92 | 1010.0 |
| 20260509234517 | 12 | 200 | 0.0 | 3.2 | 0.00 | 1.02 | 1.02 | 92 | 1009.9 |
| 20260509234004 | 12 | 200 | 0.0 | 3.2 | 0.00 | 1.02 | 1.02 | 91 | 1009.9 |
| 20260509233503 | 12 | 200 | 0.0 | 3.2 | 0.00 | 1.02 | 1.02 | 91 | 1009.9 |
| 20260509233016 | 12 | 200 | 0.0 | 3.2 | 0.00 | 1.02 | 1.02 | 91 | 1009.9 |
| 20260509232503 | 12 | 200 | 0.0 | 3.2 | 0.00 | 1.02 | 1.02 | 91 | 1009.9 |
| 20260509232004 | 12 | 248 | 0.0 | 3.2 | 0.00 | 1.02 | 1.02 | 91 | 1010.0 |
| 20260509231503 | 12 | 209 | 0.0 | 3.2 | 0.00 | 1.02 | 1.02 | 91 | 1010.0 |
| 20260509231004 | 12 | 210 | 1.6 | 3.2 | 0.00 | 1.02 | 1.02 | 91 | 1010.2 |
| 20260509230504 | 12 | 200 | 0.0 | 4.8 | 0.00 | 1.02 | 1.02 | 92 | 1010.3 |
| 20260509230006 | 12 | 200 | 0.0 | 4.8 | 0.03 | 1.02 | 1.02 | 92 | 1010.3 |
| 20260509225507 | 12 | 206 | 1.6 | 4.8 | 0.05 | 1.02 | 1.02 | 92 | 1010.3 |
| 20260509225004 | 12 | 182 | 1.6 | 3.2 | 0.05 | 1.02 | 1.02 | 92 | 1010.3 |
| 20260509224513 | 12 | 188 | 1.6 | 3.2 | 0.10 | 1.02 | 1.02 | 92 | 1010.2 |
| 20260509224006 | 12 | 209 | 0.0 | 3.2 | 0.15 | 1.02 | 1.02 | 92 | 1010.1 |
| 20260509223505 | 12 | 177 | 0.0 | 3.2 | 0.20 | 1.02 | 1.02 | 92 | 1010.1 |
| 20260509223007 | 12 | 177 | 0.0 | 3.2 | 0.23 | 1.02 | 1.02 | 92 | 1010.3 |
| 20260509222506 | 12 | 284 | 0.0 | 3.2 | 0.23 | 1.02 | 1.02 | 92 | 1010.3 |
| 20260509222003 | 12 | 284 | 0.0 | 3.2 | 0.28 | 1.02 | 1.02 | 92 | 1010.3 |
| 20260509221508 | 12 | 284 | 0.0 | 3.2 | 0.41 | 1.02 | 1.02 | 92 | 1010.5 |
| 20260509221004 | 12 | 284 | 0.0 | 3.2 | 0.41 | 1.02 | 1.02 | 92 | 1010.6 |
| 20260509220504 | 12 | 284 | 0.0 | 3.2 | 0.41 | 1.02 | 1.02 | 92 | 1010.7 |
| 20260509220007 | 12 | 284 | 0.0 | 1.6 | 0.41 | 0.99 | 0.99 | 91 | 1010.3 |
| 20260509215506 | 12 | 290 | 0.0 | 3.2 | 0.41 | 0.97 | 0.97 | 92 | 1010.6 |
| 20260509215012 | 12 | 290 | 0.0 | 3.2 | 0.43 | 0.97 | 0.97 | 91 | 1010.7 |
| 20260509214510 | 12 | 290 | 0.0 | 3.2 | 0.41 | 0.91 | 0.91 | 92 | 1010.8 |
| 20260509214006 | 12 | 290 | 0.0 | 3.2 | 0.38 | 0.86 | 0.86 | 91 | 1010.9 |
| 20260509213508 | 12 | 290 | 0.0 | 3.2 | 0.36 | 0.81 | 0.81 | 91 | 1010.7 |
| 20260509213008 | 12 | 290 | 0.0 | 3.2 | 0.36 | 0.79 | 0.79 | 91 | 1010.7 |
| 20260509212504 | 12 | 258 | 1.6 | 3.2 | 0.36 | 0.79 | 0.79 | 90 | 1010.7 |
| 20260509212005 | 12 | 215 | 1.6 | 3.2 | 0.33 | 0.74 | 0.74 | 91 | 1010.5 |
| 20260509211508 | 12 | 132 | 0.0 | 3.2 | 0.20 | 0.61 | 0.61 | 90 | 1010.9 |
| 20260509211004 | 12 | 84 | 0.0 | 3.2 | 0.23 | 0.61 | 0.61 | 90 | 1010.6 |
| 20260509210506 | 13 | 84 | 0.0 | 3.2 | 0.23 | 0.61 | 0.61 | 90 | 1010.6 |
| 20260509210005 | 13 | 84 | 0.0 | 3.2 | 0.20 | 0.58 | 0.58 | 89 | 1010.7 |
| 20260509205504 | 13 | 203 | 0.0 | 3.2 | 0.18 | 0.56 | 0.56 | 89 | 1011.0 |
| 20260509205005 | 13 | 161 | 0.0 | 3.2 | 0.15 | 0.53 | 0.53 | 89 | 1010.9 |